| time (UTC) | temp F | wind direction | speed MPH | gust MPH | rain 1hr in | rain 24hr in | rain mn in | humidity % | barometer mb |
| 20260510220047 | 69 | 148 | 12.0 | 18.0 | 0.00 | 0.00 | 0.00 | 35 | 1025.5 |
| 20260510215538 | 69 | 103 | 12.0 | 17.0 | 0.00 | 0.00 | 0.00 | 35 | 1025.7 |
| 20260510215038 | 69 | 113 | 12.0 | 18.0 | 0.00 | 0.00 | 0.00 | 35 | 1025.8 |
| 20260510214545 | 68 | 105 | 14.0 | 18.0 | 0.00 | 0.00 | 0.00 | 39 | 1025.9 |
| 20260510214039 | 68 | 113 | 12.0 | 16.0 | 0.00 | 0.00 | 0.00 | 39 | 1026.1 |
| 20260510213539 | 66 | 92 | 12.0 | 18.0 | 0.00 | 0.00 | 0.00 | 43 | 1025.9 |
| 20260510213053 | 66 | 101 | 12.0 | 18.0 | 0.00 | 0.00 | 0.00 | 42 | 1026.0 |
| 20260510212539 | 67 | 115 | 14.0 | 17.0 | 0.00 | 0.00 | 0.00 | 38 | 1026.1 |
| 20260510212040 | 67 | 110 | 12.0 | 19.0 | 0.00 | 0.00 | 0.00 | 38 | 1026.1 |
| 20260510211550 | 68 | 124 | 15.0 | 19.0 | 0.00 | 0.00 | 0.00 | 37 | 1025.8 |
| 20260510211039 | 67 | 133 | 14.0 | 19.0 | 0.00 | 0.00 | 0.00 | 37 | 1025.9 |
| 20260510210539 | 66 | 134 | 14.0 | 19.0 | 0.00 | 0.00 | 0.00 | 40 | 1025.9 |
| 20260510210043 | 66 | 114 | 13.0 | 17.0 | 0.00 | 0.00 | 0.00 | 39 | 1025.9 |
| 20260510205539 | 65 | 123 | 11.0 | 17.0 | 0.00 | 0.00 | 0.00 | 40 | 1025.6 |
| 20260510205040 | 65 | 138 | 13.0 | 18.0 | 0.00 | 0.00 | 0.00 | 40 | 1025.8 |
| 20260510204546 | 63 | 135 | 13.0 | 25.0 | 0.00 | 0.00 | 0.00 | 40 | 1025.7 |
| 20260510204040 | 64 | 102 | 18.0 | 25.0 | 0.00 | 0.00 | 0.00 | 37 | 1025.6 |
| 20260510203540 | 66 | 121 | 14.0 | 22.0 | 0.00 | 0.00 | 0.00 | 37 | 1025.6 |
| 20260510203043 | 67 | 134 | 13.0 | 19.0 | 0.00 | 0.00 | 0.00 | 34 | 1025.6 |
| 20260510202543 | 67 | 146 | 16.0 | 19.0 | 0.00 | 0.00 | 0.00 | 34 | 1025.7 |
| 20260510202113 | 67 | 159 | 12.0 | 19.0 | 0.00 | 0.00 | 0.00 | 33 | 1025.5 |
| 20260510201554 | 68 | 115 | 11.0 | 21.0 | 0.00 | 0.00 | 0.00 | 32 | 1025.5 |
| 20260510201040 | 67 | 139 | 11.0 | 21.0 | 0.00 | 0.00 | 0.00 | 32 | 1025.3 |
| 20260510200540 | 68 | 145 | 14.0 | 20.0 | 0.00 | 0.00 | 0.00 | 32 | 1025.1 |
| 20260510200050 | 68 | 163 | 14.0 | 19.0 | 0.00 | 0.00 | 0.00 | 31 | 1024.8 |
| 20260510195540 | 69 | 159 | 14.0 | 22.0 | 0.00 | 0.00 | 0.00 | 30 | 1024.7 |
| 20260510195041 | 69 | 154 | 11.0 | 22.0 | 0.00 | 0.00 | 0.00 | 29 | 1024.5 |
| 20260510194549 | 70 | 220 | 10.0 | 16.0 | 0.00 | 0.00 | 0.00 | 26 | 1024.5 |
| 20260510194040 | 70 | 205 | 9.0 | 17.0 | 0.00 | 0.00 | 0.00 | 28 | 1024.4 |
| 20260510193541 | 70 | 171 | 10.0 | 17.0 | 0.00 | 0.00 | 0.00 | 28 | 1024.4 |
| 20260510193051 | 71 | 116 | 8.0 | 19.0 | 0.00 | 0.00 | 0.00 | 27 | 1024.5 |
| 20260510192540 | 72 | 121 | 10.0 | 19.0 | 0.00 | 0.00 | 0.00 | 26 | 1024.3 |
| 20260510192040 | 75 | 140 | 15.0 | 19.0 | 0.00 | 0.00 | 0.00 | 25 | 1024.6 |
| 20260510191548 | 73 | 144 | 4.0 | 15.0 | 0.00 | 0.00 | 0.00 | 26 | 1024.4 |
| 20260510191040 | 73 | 234 | 7.0 | 18.0 | 0.00 | 0.00 | 0.00 | 26 | 1024.6 |
| 20260510190540 | 72 | 148 | 10.0 | 18.0 | 0.00 | 0.00 | 0.00 | 26 | 1024.6 |
| 20260510190052 | 73 | 163 | 11.0 | 17.0 | 0.00 | 0.00 | 0.00 | 26 | 1024.8 |
| 20260510185540 | 73 | 202 | 8.0 | 19.0 | 0.00 | 0.00 | 0.00 | 26 | 1024.7 |
| 20260510185041 | 73 | 112 | 10.0 | 19.0 | 0.00 | 0.00 | 0.00 | 27 | 1024.7 |
| 20260510184615 | 71 | 114 | 8.0 | 18.0 | 0.00 | 0.00 | 0.00 | 27 | 1024.7 |
| 20260510184043 | 71 | 185 | 4.0 | 18.0 | 0.00 | 0.00 | 0.00 | 27 | 1024.7 |
| 20260510183539 | 71 | 144 | 5.0 | 14.0 | 0.00 | 0.00 | 0.00 | 27 | 1024.8 |
| 20260510183046 | 70 | 351 | 4.0 | 17.0 | 0.00 | 0.00 | 0.00 | 28 | 1025.0 |
| 20260510182538 | 71 | 117 | 9.0 | 17.0 | 0.00 | 0.00 | 0.00 | 28 | 1025.1 |
| 20260510182037 | 71 | 145 | 8.0 | 17.0 | 0.00 | 0.00 | 0.00 | 29 | 1025.2 |
| 20260510181555 | 70 | 167 | 11.0 | 17.0 | 0.00 | 0.00 | 0.00 | 30 | 1025.3 |
| 20260510181038 | 69 | 109 | 5.0 | 18.0 | 0.00 | 0.00 | 0.00 | 29 | 1025.1 |
| 20260510180542 | 70 | 165 | 7.0 | 18.0 | 0.00 | 0.00 | 0.00 | 29 | 1025.1 |
| 20260510180101 | 71 | 178 | 10.0 | 17.0 | 0.00 | 0.00 | 0.00 | 28 | 1025.2 |
| 20260510175537 | 71 | 149 | 6.0 | 14.0 | 0.00 | 0.00 | 0.00 | 29 | 1025.3 |
| 20260510175037 | 71 | 186 | 10.0 | 13.0 | 0.00 | 0.00 | 0.00 | 29 | 1025.3 |
| 20260510174546 | 69 | 187 | 3.0 | 12.0 | 0.00 | 0.00 | 0.00 | 30 | 1025.3 |
| 20260510174038 | 69 | 141 | 5.0 | 18.0 | 0.00 | 0.00 | 0.00 | 29 | 1025.3 |
| 20260510173538 | 70 | 113 | 8.0 | 18.0 | 0.00 | 0.00 | 0.00 | 29 | 1025.3 |
| 20260510173047 | 70 | 176 | 9.0 | 15.0 | 0.00 | 0.00 | 0.00 | 30 | 1025.2 |
| 20260510172541 | 69 | 146 | 9.0 | 13.0 | 0.00 | 0.00 | 0.00 | 30 | 1025.2 |
| 20260510172038 | 68 | 128 | 8.0 | 13.0 | 0.00 | 0.00 | 0.00 | 31 | 1025.2 |
| 20260510171559 | 68 | 126 | 7.0 | 17.0 | 0.00 | 0.00 | 0.00 | 31 | 1025.2 |
| 20260510171041 | 68 | 139 | 5.0 | 17.0 | 0.00 | 0.00 | 0.00 | 33 | 1025.1 |
| 20260510170538 | 69 | 101 | 10.0 | 17.0 | 0.00 | 0.00 | 0.00 | 32 | 1025.1 |
| 20260510170049 | 69 | 148 | 10.0 | 20.0 | 0.00 | 0.00 | 0.00 | 32 | 1025.1 |
| 20260510165539 | 69 | 72 | 11.0 | 22.0 | 0.00 | 0.00 | 0.00 | 33 | 1025.1 |
| 20260510165037 | 69 | 131 | 13.0 | 22.0 | 0.00 | 0.00 | 0.00 | 34 | 1025.3 |
| 20260510164543 | 69 | 101 | 13.0 | 18.0 | 0.00 | 0.00 | 0.00 | 33 | 1025.2 |
| 20260510164037 | 68 | 108 | 9.0 | 17.0 | 0.00 | 0.00 | 0.00 | 33 | 1025.0 |
| 20260510163537 | 69 | 111 | 11.0 | 21.0 | 0.00 | 0.00 | 0.00 | 32 | 1025.2 |
| 20260510163051 | 69 | 103 | 13.0 | 21.0 | 0.00 | 0.00 | 0.00 | 32 | 1025.1 |
| 20260510162539 | 69 | 106 | 11.0 | 16.0 | 0.00 | 0.00 | 0.00 | 32 | 1024.9 |
| 20260510162038 | 69 | 105 | 8.0 | 14.0 | 0.00 | 0.00 | 0.00 | 28 | 1024.7 |
| 20260510161548 | 69 | 161 | 7.0 | 14.0 | 0.00 | 0.00 | 0.00 | 28 | 1024.9 |
| 20260510161038 | 68 | 146 | 10.0 | 14.0 | 0.00 | 0.00 | 0.00 | 30 | 1024.9 |
| 20260510160538 | 67 | 138 | 6.0 | 14.0 | 0.00 | 0.00 | 0.00 | 30 | 1024.7 |
| 20260510160052 | 67 | 137 | 9.0 | 14.0 | 0.00 | 0.00 | 0.00 | 29 | 1024.9 |
| 20260510155537 | 67 | 139 | 9.0 | 13.0 | 0.00 | 0.00 | 0.00 | 29 | 1024.8 |
| 20260510155038 | 67 | 159 | 6.0 | 15.0 | 0.00 | 0.00 | 0.00 | 30 | 1024.8 |
| 20260510154612 | 67 | 175 | 7.0 | 15.0 | 0.00 | 0.00 | 0.00 | 29 | 1024.6 |
| 20260510154038 | 66 | 167 | 7.0 | 15.0 | 0.00 | 0.00 | 0.00 | 30 | 1024.4 |
| 20260510153537 | 67 | 144 | 10.0 | 15.0 | 0.00 | 0.00 | 0.00 | 30 | 1024.5 |
| 20260510153100 | 66 | 137 | 9.0 | 14.0 | 0.00 | 0.00 | 0.00 | 30 | 1024.6 |
| 20260510152538 | 66 | 172 | 7.0 | 14.0 | 0.00 | 0.00 | 0.00 | 31 | 1024.4 |
| 20260510152045 | 65 | 192 | 7.0 | 13.0 | 0.00 | 0.00 | 0.00 | 31 | 1024.4 |
| 20260510151550 | 65 | 167 | 6.0 | 13.0 | 0.00 | 0.00 | 0.00 | 32 | 1024.4 |
| 20260510151038 | 64 | 167 | 5.0 | 10.0 | 0.00 | 0.00 | 0.00 | 32 | 1024.3 |
| 20260510150538 | 64 | 190 | 6.0 | 11.0 | 0.00 | 0.00 | 0.00 | 32 | 1024.4 |
| 20260510150056 | 64 | 194 | 7.0 | 11.0 | 0.00 | 0.00 | 0.00 | 33 | 1024.4 |
| 20260510145538 | 64 | 173 | 7.0 | 12.0 | 0.00 | 0.00 | 0.00 | 33 | 1024.4 |
| 20260510145038 | 63 | 172 | 8.0 | 12.0 | 0.00 | 0.00 | 0.00 | 33 | 1024.3 |
| 20260510144616 | 64 | 207 | 7.0 | 12.0 | 0.00 | 0.00 | 0.00 | 33 | 1024.0 |
| 20260510144038 | 63 | 169 | 9.0 | 13.0 | 0.00 | 0.00 | 0.00 | 33 | 1024.2 |
| 20260510143538 | 63 | 192 | 9.0 | 13.0 | 0.00 | 0.00 | 0.00 | 33 | 1024.1 |
| 20260510143048 | 63 | 194 | 5.0 | 9.0 | 0.00 | 0.00 | 0.00 | 33 | 1024.0 |
| 20260510142537 | 62 | 184 | 6.0 | 10.0 | 0.00 | 0.00 | 0.00 | 33 | 1024.0 |
| 20260510142039 | 62 | 201 | 7.0 | 10.0 | 0.00 | 0.00 | 0.00 | 34 | 1024.1 |
| 20260510141549 | 60 | 194 | 5.0 | 13.0 | 0.00 | 0.00 | 0.00 | 35 | 1024.1 |
| 20260510141038 | 61 | 187 | 6.0 | 13.0 | 0.00 | 0.00 | 0.00 | 33 | 1024.1 |
| 20260510140538 | 62 | 159 | 9.0 | 14.0 | 0.00 | 0.00 | 0.00 | 33 | 1023.9 |
| 20260510140043 | 61 | 164 | 8.0 | 14.0 | 0.00 | 0.00 | 0.00 | 34 | 1023.9 |
| 20260510135539 | 62 | 148 | 9.0 | 12.0 | 0.00 | 0.00 | 0.00 | 34 | 1023.8 |
| 20260510135040 | 61 | 146 | 5.0 | 8.0 | 0.00 | 0.00 | 0.00 | 34 | 1023.8 |
| 20260510134549 | 61 | 134 | 4.0 | 6.0 | 0.00 | 0.00 | 0.00 | 34 | 1023.7 |
| 20260510134039 | 60 | 178 | 3.0 | 6.0 | 0.00 | 0.00 | 0.00 | 34 | 1023.4 |
| 20260510133538 | 59 | 243 | 1.0 | 3.0 | 0.00 | 0.00 | 0.00 | 34 | 1023.4 |
| 20260510133045 | 59 | 296 | 0.0 | 2.0 | 0.00 | 0.00 | 0.00 | 34 | 1023.5 |
| 20260510132538 | 59 | 0 | 0.0 | 0.0 | 0.00 | 0.00 | 0.00 | 35 | 1023.3 |
| 20260510132038 | 58 | 0 | 0.0 | 0.0 | 0.00 | 0.00 | 0.00 | 35 | 1023.3 |
| 20260510131549 | 57 | 0 | 0.0 | 1.0 | 0.00 | 0.00 | 0.00 | 36 | 1023.1 |
| 20260510131038 | 56 | 0 | 0.0 | 2.0 | 0.00 | 0.00 | 0.00 | 37 | 1023.0 |
| 20260510130540 | 55 | 0 | 1.0 | 2.0 | 0.00 | 0.00 | 0.00 | 38 | 1023.0 |
| 20260510130045 | 55 | 321 | 1.0 | 3.0 | 0.00 | 0.00 | 0.00 | 38 | 1023.1 |
| 20260510125540 | 55 | 321 | 2.0 | 3.0 | 0.00 | 0.00 | 0.00 | 37 | 1023.1 |
| 20260510125037 | 56 | 176 | 0.0 | 2.0 | 0.00 | 0.00 | 0.00 | 36 | 1022.9 |
| 20260510124549 | 57 | 0 | 0.0 | 2.0 | 0.00 | 0.00 | 0.00 | 35 | 1022.9 |
| 20260510124037 | 57 | 0 | 0.0 | 1.0 | 0.00 | 0.00 | 0.00 | 35 | 1022.8 |
| 20260510123538 | 57 | 0 | 0.0 | 2.0 | 0.00 | 0.00 | 0.00 | 35 | 1022.8 |
| 20260510123056 | 57 | 0 | 0.0 | 2.0 | 0.00 | 0.00 | 0.00 | 35 | 1022.7 |
| 20260510122539 | 57 | 176 | 1.0 | 2.0 | 0.00 | 0.00 | 0.00 | 35 | 1022.7 |
| 20260510122038 | 57 | 176 | 0.0 | 3.0 | 0.00 | 0.00 | 0.00 | 35 | 1022.7 |
| 20260510121548 | 57 | 176 | 2.0 | 5.0 | 0.00 | 0.00 | 0.00 | 34 | 1022.6 |
| 20260510121041 | 58 | 176 | 3.0 | 6.0 | 0.00 | 0.00 | 0.00 | 34 | 1022.5 |
| 20260510120538 | 58 | 167 | 4.0 | 6.0 | 0.00 | 0.00 | 0.00 | 33 | 1022.5 |
| 20260510120048 | 59 | 159 | 3.0 | 7.0 | 0.00 | 0.00 | 0.00 | 33 | 1022.5 |
| 20260510115541 | 59 | 150 | 4.0 | 7.0 | 0.00 | 0.00 | 0.00 | 32 | 1022.4 |
| 20260510115038 | 60 | 146 | 4.0 | 9.0 | 0.00 | 0.00 | 0.00 | 30 | 1022.4 |
| 20260510114551 | 60 | 177 | 6.0 | 9.0 | 0.00 | 0.00 | 0.00 | 30 | 1022.4 |
| 20260510114039 | 61 | 211 | 5.0 | 8.0 | 0.00 | 0.00 | 0.00 | 29 | 1022.3 |
| 20260510113537 | 61 | 227 | 5.0 | 8.0 | 0.00 | 0.00 | 0.00 | 28 | 1022.4 |
| 20260510113056 | 62 | 239 | 6.0 | 8.0 | 0.00 | 0.00 | 0.00 | 28 | 1022.5 |
| 20260510112538 | 63 | 232 | 1.0 | 21.0 | 0.00 | 0.00 | 0.00 | 28 | 1022.4 |
| 20260510112039 | 62 | 5 | 6.0 | 21.0 | 0.00 | 0.00 | 0.00 | 28 | 1022.7 |
| 20260510111549 | 62 | 316 | 6.0 | 22.0 | 0.00 | 0.00 | 0.00 | 28 | 1022.9 |
| 20260510111040 | 62 | 121 | 14.0 | 30.0 | 0.00 | 0.00 | 0.00 | 31 | 1022.9 |
| 20260510110541 | 63 | 336 | 19.0 | 30.0 | 0.00 | 0.00 | 0.00 | 29 | 1023.1 |
| 20260510110052 | 63 | 264 | 6.0 | 21.0 | 0.00 | 0.00 | 0.00 | 28 | 1022.6 |
| 20260510105538 | 63 | 281 | 8.0 | 32.0 | 0.00 | 0.00 | 0.00 | 26 | 1022.2 |
| 20260510105038 | 64 | 234 | 19.0 | 32.0 | 0.00 | 0.00 | 0.00 | 28 | 1022.3 |
| 20260510104556 | 64 | 245 | 10.0 | 19.0 | 0.00 | 0.00 | 0.00 | 24 | 1022.3 |
| 20260510104037 | 64 | 234 | 12.0 | 19.0 | 0.00 | 0.00 | 0.00 | 25 | 1021.8 |
| 20260510103537 | 64 | 213 | 6.0 | 12.0 | 0.00 | 0.00 | 0.00 | 24 | 1021.7 |
| 20260510103044 | 64 | 223 | 5.0 | 12.0 | 0.00 | 0.00 | 0.00 | 24 | 1021.7 |
| 20260510102538 | 62 | 118 | 5.0 | 18.0 | 0.00 | 0.00 | 0.00 | 26 | 1021.6 |
| 20260510102037 | 58 | 229 | 7.0 | 18.0 | 0.00 | 0.00 | 0.00 | 28 | 1021.8 |
| 20260510101549 | 58 | 334 | 1.0 | 3.0 | 0.00 | 0.00 | 0.00 | 27 | 1021.6 |
| 20260510101037 | 58 | 196 | 2.0 | 3.0 | 0.00 | 0.00 | 0.00 | 27 | 1021.4 |
| 20260510100538 | 58 | 103 | 0.0 | 3.0 | 0.00 | 0.00 | 0.00 | 27 | 1021.3 |
| 20260510100052 | 59 | 103 | 0.0 | 4.0 | 0.00 | 0.00 | 0.00 | 26 | 1021.2 |
| 20260510095542 | 61 | 82 | 3.0 | 4.0 | 0.00 | 0.00 | 0.00 | 25 | 1021.3 |
| 20260510095038 | 60 | 352 | 3.0 | 5.0 | 0.00 | 0.00 | 0.00 | 25 | 1021.3 |
| 20260510094544 | 60 | 311 | 2.0 | 8.0 | 0.00 | 0.00 | 0.00 | 25 | 1021.3 |
| 20260510094038 | 60 | 298 | 5.0 | 8.0 | 0.00 | 0.00 | 0.00 | 24 | 1021.3 |
| 20260510093538 | 60 | 300 | 2.0 | 4.0 | 0.00 | 0.00 | 0.00 | 24 | 1021.1 |
| 20260510093051 | 60 | 0 | 0.0 | 5.0 | 0.00 | 0.00 | 0.00 | 24 | 1021.1 |
| 20260510092538 | 61 | 296 | 4.0 | 7.0 | 0.00 | 0.00 | 0.00 | 24 | 1021.2 |
| 20260510092037 | 61 | 303 | 4.0 | 8.0 | 0.00 | 0.00 | 0.00 | 24 | 1021.0 |
| 20260510091547 | 60 | 288 | 5.0 | 8.0 | 0.00 | 0.00 | 0.00 | 24 | 1021.0 |
| 20260510091040 | 60 | 286 | 6.0 | 8.0 | 0.00 | 0.00 | 0.00 | 24 | 1021.1 |
| 20260510090541 | 60 | 277 | 3.0 | 7.0 | 0.00 | 0.00 | 0.00 | 24 | 1021.1 |
| 20260510090046 | 59 | 277 | 4.0 | 6.0 | 0.00 | 0.00 | 0.00 | 25 | 1021.0 |
| 20260510085538 | 62 | 217 | 3.0 | 4.0 | 0.00 | 0.00 | 0.00 | 25 | 1020.8 |
| 20260510085038 | 63 | 320 | 2.0 | 3.0 | 0.00 | 0.00 | 0.00 | 24 | 1020.7 |
| 20260510084600 | 63 | 320 | 2.0 | 3.0 | 0.00 | 0.00 | 0.00 | 24 | 1020.5 |
| 20260510084038 | 62 | 320 | 2.0 | 4.0 | 0.00 | 0.00 | 0.00 | 24 | 1020.4 |
| 20260510083538 | 62 | 320 | 2.0 | 4.0 | 0.00 | 0.00 | 0.00 | 24 | 1020.5 |
| 20260510083110 | 62 | 297 | 3.0 | 4.0 | 0.00 | 0.00 | 0.00 | 24 | 1020.3 |
| 20260510082539 | 61 | 286 | 2.0 | 6.0 | 0.00 | 0.00 | 0.00 | 24 | 1020.3 |
| 20260510082038 | 61 | 281 | 4.0 | 6.0 | 0.00 | 0.00 | 0.00 | 24 | 1020.3 |
| 20260510081610 | 60 | 286 | 4.0 | 6.0 | 0.00 | 0.00 | 0.00 | 24 | 1020.4 |
| 20260510081038 | 62 | 279 | 4.0 | 6.0 | 0.00 | 0.00 | 0.00 | 23 | 1020.3 |
| 20260510080541 | 64 | 360 | 1.0 | 3.0 | 0.00 | 0.00 | 0.00 | 22 | 1020.3 |
| 20260510080043 | 65 | 29 | 1.0 | 4.0 | 0.00 | 0.00 | 0.00 | 22 | 1020.3 |
| 20260510075540 | 65 | 360 | 2.0 | 7.0 | 0.00 | 0.00 | 0.00 | 22 | 1020.3 |
| 20260510075038 | 65 | 42 | 3.0 | 7.0 | 0.00 | 0.00 | 0.00 | 22 | 1020.3 |
| 20260510074552 | 65 | 26 | 3.0 | 9.0 | 0.00 | 0.00 | 0.00 | 22 | 1020.2 |
| 20260510074038 | 65 | 352 | 5.0 | 10.0 | 0.00 | 0.00 | 0.00 | 21 | 1020.3 |
| 20260510073537 | 65 | 13 | 5.0 | 10.0 | 0.00 | 0.00 | 0.00 | 21 | 1020.1 |
| 20260510073051 | 65 | 5 | 5.0 | 11.0 | 0.00 | 0.00 | 0.00 | 21 | 1020.1 |
| 20260510072538 | 65 | 9 | 8.0 | 11.0 | 0.00 | 0.00 | 0.00 | 22 | 1020.1 |
| 20260510072040 | 65 | 9 | 5.0 | 10.0 | 0.00 | 0.00 | 0.00 | 22 | 1020.0 |
| 20260510071552 | 65 | 349 | 6.0 | 11.0 | 0.00 | 0.00 | 0.00 | 21 | 1020.0 |
| 20260510071038 | 65 | 11 | 7.0 | 11.0 | 0.00 | 0.00 | 0.00 | 21 | 1020.0 |
| 20260510070538 | 65 | 15 | 5.0 | 11.0 | 0.00 | 0.00 | 0.00 | 21 | 1020.0 |
| 20260510070044 | 65 | 360 | 7.0 | 11.0 | 0.00 | 0.00 | 0.00 | 21 | 1019.9 |
| 20260510065538 | 65 | 13 | 7.0 | 13.0 | 0.00 | 0.00 | 0.00 | 21 | 1019.8 |
| 20260510065041 | 65 | 13 | 8.0 | 13.0 | 0.00 | 0.00 | 0.00 | 21 | 1019.7 |
| 20260510064547 | 65 | 24 | 9.0 | 12.0 | 0.00 | 0.00 | 0.00 | 21 | 1019.7 |
| 20260510064038 | 65 | 28 | 7.0 | 11.0 | 0.00 | 0.00 | 0.00 | 21 | 1019.7 |
| 20260510063538 | 65 | 18 | 7.0 | 13.0 | 0.00 | 0.00 | 0.00 | 21 | 1019.8 |
| 20260510063049 | 65 | 27 | 7.0 | 15.0 | 0.00 | 0.00 | 0.00 | 21 | 1019.8 |
| 20260510062540 | 65 | 12 | 8.0 | 15.0 | 0.00 | 0.00 | 0.00 | 21 | 1019.7 |
| 20260510062039 | 65 | 360 | 8.0 | 14.0 | 0.00 | 0.00 | 0.00 | 20 | 1019.7 |
| 20260510061553 | 64 | 30 | 7.0 | 11.0 | 0.00 | 0.00 | 0.00 | 20 | 1019.6 |
| 20260510061038 | 64 | 17 | 7.0 | 11.0 | 0.00 | 0.00 | 0.00 | 20 | 1019.5 |
| 20260510060538 | 63 | 360 | 7.0 | 10.0 | 0.00 | 0.00 | 0.00 | 19 | 1019.6 |
| 20260510060049 | 63 | 5 | 5.0 | 9.0 | 0.00 | 0.00 | 0.00 | 19 | 1019.5 |
| 20260510055540 | 62 | 15 | 5.0 | 8.0 | 0.00 | 0.00 | 0.00 | 19 | 1019.5 |
| 20260510055040 | 61 | 352 | 3.0 | 5.0 | 0.00 | 0.00 | 0.00 | 19 | 1019.5 |
| 20260510054543 | 62 | 352 | 3.0 | 5.0 | 0.00 | 0.00 | 0.00 | 19 | 1019.4 |
| 20260510054040 | 62 | 5 | 3.0 | 4.0 | 0.00 | 0.00 | 0.00 | 19 | 1019.3 |
| 20260510053537 | 62 | 350 | 3.0 | 5.0 | 0.00 | 0.00 | 0.00 | 19 | 1019.2 |
| 20260510053054 | 63 | 350 | 4.0 | 6.0 | 0.00 | 0.00 | 0.00 | 18 | 1019.1 |
| 20260510052540 | 63 | 5 | 4.0 | 7.0 | 0.00 | 0.00 | 0.00 | 18 | 1019.1 |
| 20260510052040 | 64 | 352 | 5.0 | 10.0 | 0.00 | 0.00 | 0.00 | 17 | 1019.0 |
| 20260510051546 | 65 | 5 | 4.0 | 10.0 | 0.00 | 0.00 | 0.00 | 17 | 1019.0 |
| 20260510051042 | 65 | 327 | 7.0 | 10.0 | 0.00 | 0.00 | 0.00 | 17 | 1018.8 |
| 20260510050544 | 66 | 340 | 8.0 | 10.0 | 0.00 | 0.00 | 0.00 | 16 | 1018.9 |
| 20260510050051 | 66 | 338 | 7.0 | 10.0 | 0.00 | 0.00 | 0.00 | 16 | 1018.8 |
| 20260510045540 | 66 | 325 | 7.0 | 10.0 | 0.00 | 0.00 | 0.00 | 16 | 1018.7 |
| 20260510045040 | 67 | 334 | 5.0 | 11.0 | 0.00 | 0.00 | 0.00 | 16 | 1018.7 |
| 20260510044550 | 68 | 342 | 7.0 | 11.0 | 0.00 | 0.00 | 0.00 | 15 | 1018.7 |
| 20260510044040 | 69 | 343 | 9.0 | 13.0 | 0.00 | 0.00 | 0.00 | 15 | 1018.7 |
| 20260510043540 | 69 | 340 | 9.0 | 16.0 | 0.00 | 0.00 | 0.00 | 15 | 1018.7 |
| 20260510043048 | 69 | 349 | 10.0 | 17.0 | 0.00 | 0.00 | 0.00 | 15 | 1018.7 |
| 20260510042550 | 69 | 338 | 11.0 | 17.0 | 0.00 | 0.00 | 0.00 | 15 | 1018.6 |
| 20260510042043 | 69 | 323 | 9.0 | 18.0 | 0.00 | 0.00 | 0.00 | 15 | 1018.7 |
| 20260510041546 | 69 | 325 | 11.0 | 18.0 | 0.00 | 0.00 | 0.00 | 16 | 1018.7 |
| 20260510041039 | 67 | 322 | 10.0 | 15.0 | 0.00 | 0.00 | 0.00 | 16 | 1018.8 |
| 20260510040542 | 66 | 306 | 8.0 | 12.0 | 0.00 | 0.00 | 0.00 | 17 | 1018.7 |
| 20260510040059 | 64 | 304 | 3.0 | 5.0 | 0.00 | 0.00 | 0.00 | 19 | 1018.6 |
| 20260510035539 | 65 | 309 | 2.0 | 5.0 | 0.00 | 0.00 | 0.00 | 19 | 1018.6 |
| 20260510035041 | 67 | 307 | 3.0 | 5.0 | 0.00 | 0.00 | 0.00 | 18 | 1018.6 |
| 20260510034558 | 67 | 303 | 4.0 | 7.0 | 0.00 | 0.00 | 0.00 | 18 | 1018.6 |
| 20260510034040 | 67 | 298 | 4.0 | 7.0 | 0.00 | 0.00 | 0.00 | 19 | 1018.8 |
| 20260510033543 | 66 | 300 | 4.0 | 5.0 | 0.00 | 0.00 | 0.00 | 19 | 1018.8 |
| 20260510033048 | 66 | 297 | 4.0 | 6.0 | 0.00 | 0.00 | 0.00 | 19 | 1018.7 |
| 20260510032542 | 66 | 290 | 4.0 | 6.0 | 0.00 | 0.00 | 0.00 | 19 | 1018.7 |
| 20260510032041 | 65 | 292 | 3.0 | 6.0 | 0.00 | 0.00 | 0.00 | 19 | 1018.7 |
| 20260510031559 | 66 | 269 | 3.0 | 7.0 | 0.00 | 0.00 | 0.00 | 19 | 1018.6 |
| 20260510031041 | 68 | 272 | 5.0 | 9.0 | 0.00 | 0.00 | 0.00 | 18 | 1018.5 |
| 20260510030539 | 68 | 285 | 6.0 | 9.0 | 0.00 | 0.00 | 0.00 | 18 | 1018.6 |
| 20260510030051 | 69 | 282 | 4.0 | 6.0 | 0.00 | 0.00 | 0.00 | 18 | 1018.4 |
| 20260510025538 | 69 | 298 | 4.0 | 13.0 | 0.00 | 0.00 | 0.00 | 17 | 1018.4 |
| 20260510025041 | 70 | 311 | 8.0 | 14.0 | 0.00 | 0.00 | 0.00 | 17 | 1018.3 |
| 20260510024553 | 70 | 309 | 9.0 | 14.0 | 0.00 | 0.00 | 0.00 | 17 | 1018.3 |
| 20260510024038 | 70 | 284 | 9.0 | 14.0 | 0.00 | 0.00 | 0.00 | 17 | 1018.2 |
| 20260510023541 | 69 | 306 | 7.0 | 11.0 | 0.00 | 0.00 | 0.00 | 17 | 1018.0 |
| 20260510023054 | 70 | 311 | 4.0 | 9.0 | 0.00 | 0.00 | 0.00 | 17 | 1018.0 |
| 20260510022541 | 71 | 287 | 4.0 | 9.0 | 0.00 | 0.00 | 0.00 | 16 | 1017.9 |
| 20260510022041 | 72 | 300 | 5.0 | 11.0 | 0.00 | 0.00 | 0.00 | 16 | 1017.8 |
| 20260510021555 | 72 | 290 | 7.0 | 15.0 | 0.00 | 0.00 | 0.00 | 16 | 1017.9 |
| 20260510021040 | 72 | 306 | 8.0 | 15.0 | 0.00 | 0.00 | 0.00 | 16 | 1017.7 |
| 20260510020542 | 72 | 300 | 11.0 | 15.0 | 0.00 | 0.00 | 0.00 | 16 | 1017.6 |
| 20260510020046 | 73 | 306 | 10.0 | 20.0 | 0.00 | 0.00 | 0.00 | 16 | 1017.7 |
| 20260510015539 | 73 | 310 | 14.0 | 20.0 | 0.00 | 0.00 | 0.00 | 15 | 1017.6 |
| 20260510015039 | 73 | 292 | 10.0 | 15.0 | 0.00 | 0.00 | 0.00 | 15 | 1017.5 |
| 20260510014557 | 73 | 286 | 9.0 | 19.0 | 0.00 | 0.00 | 0.00 | 14 | 1017.3 |
| 20260510014038 | 74 | 295 | 14.0 | 19.0 | 0.00 | 0.00 | 0.00 | 14 | 1017.3 |
| 20260510013538 | 74 | 352 | 10.0 | 14.0 | 0.00 | 0.00 | 0.00 | 14 | 1017.2 |
| 20260510013101 | 74 | 304 | 10.0 | 18.0 | 0.00 | 0.00 | 0.00 | 14 | 1017.2 |
| 20260510012540 | 74 | 324 | 12.0 | 18.0 | 0.00 | 0.00 | 0.00 | 13 | 1017.1 |
| 20260510012039 | 74 | 296 | 10.0 | 15.0 | 0.00 | 0.00 | 0.00 | 13 | 1017.1 |
| 20260510011550 | 74 | 308 | 7.0 | 13.0 | 0.00 | 0.00 | 0.00 | 13 | 1017.1 |
| 20260510011043 | 75 | 288 | 8.0 | 17.0 | 0.00 | 0.00 | 0.00 | 13 | 1017.1 |
| 20260510010540 | 75 | 303 | 11.0 | 17.0 | 0.00 | 0.00 | 0.00 | 12 | 1017.0 |
| 20260510010050 | 75 | 305 | 11.0 | 15.0 | 0.00 | 0.00 | 0.00 | 12 | 1017.1 |
| 20260510005541 | 76 | 315 | 11.0 | 18.0 | 0.00 | 0.00 | 0.00 | 12 | 1016.9 |
| 20260510005041 | 76 | 340 | 12.0 | 22.0 | 0.00 | 0.00 | 0.00 | 12 | 1016.9 |
| 20260510004545 | 76 | 331 | 14.0 | 22.0 | 0.00 | 0.00 | 0.00 | 12 | 1016.7 |
| 20260510004038 | 76 | 292 | 11.0 | 18.0 | 0.00 | 0.00 | 0.00 | 11 | 1016.9 |
| 20260510003538 | 76 | 306 | 13.0 | 18.0 | 0.00 | 0.00 | 0.00 | 11 | 1016.9 |
| 20260510003050 | 77 | 332 | 10.0 | 20.0 | 0.00 | 0.00 | 0.00 | 11 | 1016.8 |
| 20260510002545 | 76 | 335 | 10.0 | 20.0 | 0.00 | 0.00 | 0.00 | 11 | 1017.0 |
| 20260510002041 | 76 | 325 | 13.0 | 19.0 | 0.00 | 0.00 | 0.00 | 11 | 1017.0 |
| 20260510001543 | 76 | 336 | 12.0 | 21.0 | 0.00 | 0.00 | 0.00 | 11 | 1017.0 |
| 20260510001042 | 77 | 330 | 14.0 | 21.0 | 0.00 | 0.00 | 0.00 | 10 | 1017.0 |
| 20260510000541 | 77 | 302 | 11.0 | 22.0 | 0.00 | 0.00 | 0.00 | 11 | 1016.9 |
| 20260510000050 | 78 | 311 | 17.0 | 22.0 | 0.00 | 0.00 | 0.00 | 11 | 1017.1 |
| 20260509235538 | 78 | 298 | 10.0 | 18.0 | 0.00 | 0.00 | 0.00 | 11 | 1016.9 |
| 20260509235038 | 76 | 338 | 13.0 | 20.0 | 0.00 | 0.00 | 0.00 | 10 | 1016.9 |
| 20260509234549 | 77 | 280 | 12.0 | 22.0 | 0.00 | 0.00 | 0.00 | 11 | 1017.0 |
| 20260509234045 | 78 | 296 | 13.0 | 24.0 | 0.00 | 0.00 | 0.00 | 11 | 1017.0 |
| 20260509233539 | 78 | 317 | 18.0 | 24.0 | 0.00 | 0.00 | 0.00 | 11 | 1017.0 |
| 20260509233053 | 77 | 336 | 14.0 | 18.0 | 0.00 | 0.00 | 0.00 | 11 | 1016.9 |
| 20260509232539 | 77 | 300 | 12.0 | 15.0 | 0.00 | 0.00 | 0.00 | 10 | 1017.2 |
| 20260509232041 | 77 | 322 | 8.0 | 22.0 | 0.00 | 0.00 | 0.00 | 11 | 1017.1 |
| 20260509231548 | 77 | 270 | 12.0 | 25.0 | 0.00 | 0.00 | 0.00 | 10 | 1017.1 |
| 20260509231041 | 78 | 325 | 15.0 | 25.0 | 0.00 | 0.00 | 0.00 | 10 | 1017.1 |
| 20260509230539 | 78 | 294 | 9.0 | 23.0 | 0.00 | 0.00 | 0.00 | 10 | 1017.0 |
| 20260509230044 | 79 | 279 | 14.0 | 25.0 | 0.00 | 0.00 | 0.00 | 10 | 1017.2 |
| 20260509225541 | 80 | 285 | 17.0 | 25.0 | 0.00 | 0.00 | 0.00 | 10 | 1017.1 |
| 20260509225040 | 80 | 310 | 9.0 | 24.0 | 0.00 | 0.00 | 0.00 | 10 | 1017.2 |
| 20260509224548 | 80 | 345 | 16.0 | 25.0 | 0.00 | 0.00 | 0.00 | 10 | 1017.2 |
| 20260509224042 | 79 | 306 | 16.0 | 25.0 | 0.00 | 0.00 | 0.00 | 10 | 1017.1 |
| 20260509223542 | 78 | 298 | 15.0 | 24.0 | 0.00 | 0.00 | 0.00 | 10 | 1017.2 |
| 20260509223045 | 79 | 308 | 17.0 | 24.0 | 0.00 | 0.00 | 0.00 | 10 | 1017.5 |
| 20260509222540 | 80 | 308 | 15.0 | 23.0 | 0.00 | 0.00 | 0.00 | 9 | 1017.3 |
| 20260509222040 | 80 | 350 | 17.0 | 28.0 | 0.00 | 0.00 | 0.00 | 10 | 1017.5 |
| 20260509221550 | 80 | 315 | 16.0 | 28.0 | 0.00 | 0.00 | 0.00 | 10 | 1017.6 |
| 20260509221042 | 80 | 348 | 13.0 | 23.0 | 0.00 | 0.00 | 0.00 | 11 | 1017.5 |
| 20260509220542 | 79 | 296 | 11.0 | 24.0 | 0.00 | 0.00 | 0.00 | 11 | 1017.5 |